createdAt,value
2018-11-21T00:00:23.521Z,99769.91
2018-11-21T00:02:53.088Z,99766.09
2018-11-21T00:05:22.667Z,99770.70
2018-11-21T00:07:52.184Z,99773.61
2018-11-21T00:10:21.747Z,99775.84
2018-11-21T00:12:55.096Z,99770.55
2018-11-21T00:15:24.658Z,99771.83
2018-11-21T00:17:54.181Z,99781.03
2018-11-21T00:20:23.998Z,99774.48
2018-11-21T00:22:53.527Z,99783.02
2018-11-21T00:25:23.288Z,99773.25
2018-11-21T00:27:52.886Z,99780.63
2018-11-21T00:30:22.407Z,99780.03
2018-11-21T00:32:51.953Z,99784.34
2018-11-21T00:35:21.527Z,99789.48
2018-11-21T00:37:51.058Z,99794.63
2018-11-21T00:40:20.607Z,99792.12
2018-11-21T00:42:50.207Z,99798.84
2018-11-21T00:45:19.758Z,99801.50
2018-11-21T00:47:49.284Z,99794.98
2018-11-21T00:50:18.906Z,99796.76
2018-11-21T00:52:48.408Z,99798.59
2018-11-21T00:55:17.956Z,99792.08
2018-11-21T00:57:47.483Z,99794.69
2018-11-21T01:00:17.054Z,99794.17
2018-11-21T01:02:46.575Z,99794.94
2018-11-21T01:05:16.088Z,99799.30
2018-11-21T01:07:45.661Z,99800.18
2018-11-21T01:10:15.189Z,99804.86
2018-11-21T01:12:44.696Z,99816.03
2018-11-21T01:15:14.285Z,99803.32
2018-11-21T01:17:43.836Z,99802.56
2018-11-21T01:20:13.368Z,99804.20
2018-11-21T01:22:43.346Z,99803.32
2018-11-21T01:25:12.874Z,99809.08
2018-11-21T01:27:42.421Z,99806.02
2018-11-21T01:30:11.987Z,99803.73
2018-11-21T01:32:41.525Z,99808.83
2018-11-21T01:35:11.058Z,99807.40
2018-11-21T01:37:40.638Z,99807.76
2018-11-21T01:40:10.918Z,99803.63
2018-11-21T01:42:40.595Z,99802.20
2018-11-21T01:45:10.176Z,99800.78
2018-11-21T01:47:39.674Z,99805.56
2018-11-21T01:50:09.907Z,99803.02
2018-11-21T01:52:40.302Z,99808.11
2018-11-21T01:55:09.801Z,99807.55
2018-11-21T01:57:39.336Z,99802.58
2018-11-21T02:00:11.433Z,99796.86
2018-11-21T02:02:41.067Z,99800.69
2018-11-21T02:05:10.633Z,99797.80
2018-11-21T02:07:40.186Z,99802.56
2018-11-21T02:10:09.773Z,99795.48
2018-11-21T02:12:39.287Z,99800.47
2018-11-21T02:15:08.853Z,99797.38
2018-11-21T02:17:38.435Z,99793.81
2018-11-21T02:20:09.701Z,99787.80
2018-11-21T02:22:39.496Z,99792.73
2018-11-21T02:25:09.239Z,99794.56
2018-11-21T02:27:38.792Z,99792.06
2018-11-21T02:30:09.658Z,99789.88
2018-11-21T02:32:39.239Z,99783.22
2018-11-21T02:35:09.401Z,99786.27
2018-11-21T02:37:38.948Z,99785.30
2018-11-21T02:40:09.052Z,99782.72
2018-11-21T02:42:38.573Z,99785.62
2018-11-21T02:45:08.284Z,99775.97
2018-11-21T02:47:37.892Z,99778.50
2018-11-21T02:50:07.897Z,99778.90
2018-11-21T02:52:37.517Z,99786.89
2018-11-21T02:55:07.946Z,99785.56
2018-11-21T02:57:37.701Z,99785.84
2018-11-21T03:00:24.138Z,99786.14
2018-11-21T03:02:57.991Z,99782.48
2018-11-21T03:05:27.537Z,99783.03
2018-11-21T03:07:58.597Z,99784.10
2018-11-21T03:10:28.549Z,99792.61
2018-11-21T03:12:58.247Z,99794.95
2018-11-21T03:15:27.851Z,99806.39
2018-11-21T03:17:57.358Z,99797.28
2018-11-21T03:20:26.899Z,99801.09
2018-11-21T03:22:56.442Z,99798.04
2018-11-21T03:25:26.008Z,99800.58
2018-11-21T03:27:55.527Z,99809.28
2018-11-21T03:30:25.049Z,99807.77
2018-11-21T03:32:54.628Z,99807.77
2018-11-21T03:35:24.180Z,99805.88
2018-11-21T03:37:54.129Z,99806.55
2018-11-21T03:40:23.660Z,99809.84
2018-11-21T03:42:53.208Z,99803.13
2018-11-21T03:45:22.754Z,99799.72
2018-11-21T03:47:52.327Z,99804.97
2018-11-21T03:50:21.857Z,99803.22
2018-11-21T03:52:51.373Z,99803.02
2018-11-21T03:55:21.017Z,99804.91
2018-11-21T03:57:50.539Z,99807.71
2018-11-21T04:00:20.066Z,99805.22
2018-11-21T04:02:49.638Z,99807.87
2018-11-21T04:05:19.169Z,99807.04
2018-11-21T04:07:48.722Z,99816.45
2018-11-21T04:10:18.316Z,99816.66
2018-11-21T04:12:47.831Z,99823.72
2018-11-21T04:15:17.359Z,99822.55
2018-11-21T04:17:46.929Z,99829.02
2018-11-21T04:20:16.448Z,99831.60
2018-11-21T04:22:45.988Z,99828.75
2018-11-21T04:25:15.578Z,99834.66
2018-11-21T04:27:45.187Z,99835.42
2018-11-21T04:30:14.708Z,99841.77
2018-11-21T04:35:13.849Z,99849.61
2018-11-21T04:37:43.366Z,99849.85
2018-11-21T04:40:13.249Z,99847.81
2018-11-21T04:42:42.846Z,99846.70
2018-11-21T04:45:12.451Z,99842.89
2018-11-21T04:47:41.965Z,99848.69
2018-11-21T04:50:11.581Z,99855.23
2018-11-21T04:52:41.117Z,99854.17
2018-11-21T04:55:10.667Z,99852.03
2018-11-21T04:57:40.213Z,99861.05
2018-11-21T05:00:11.352Z,99866.13
2018-11-21T05:02:40.863Z,99863.59
2018-11-21T05:05:11.659Z,99872.48
2018-11-21T05:07:41.207Z,99871.48
2018-11-21T05:10:10.788Z,99870.41
2018-11-21T05:15:51.065Z,99872.80
2018-11-21T05:18:21.148Z,99873.67
2018-11-21T05:20:51.246Z,99872.95
2018-11-21T05:23:22.055Z,99878.59
2018-11-21T05:25:51.733Z,99873.52
2018-11-21T05:28:21.446Z,99872.95
2018-11-21T05:30:51.039Z,99875.03
2018-11-21T05:33:20.681Z,99875.14
2018-11-21T05:35:50.876Z,99874.31
2018-11-21T05:38:20.472Z,99875.34
2018-11-21T05:40:50.267Z,99865.92
2018-11-21T05:43:19.867Z,99872.64
2018-11-21T05:45:49.428Z,99863.91
2018-11-21T05:48:19.218Z,99864.45
2018-11-21T05:50:48.843Z,99870.50
2018-11-21T05:53:18.365Z,99873.40
2018-11-21T05:55:47.961Z,99875.58
2018-11-21T05:58:17.532Z,99873.33
2018-11-21T06:00:49.239Z,99875.62
2018-11-21T06:03:16.769Z,99874.08
2018-11-21T06:05:46.315Z,99877.61
2018-11-21T06:08:15.944Z,99882.50
2018-11-21T06:10:45.624Z,99876.14
2018-11-21T06:13:15.210Z,99873.59
2018-11-21T06:15:44.799Z,99882.66
2018-11-21T06:18:14.381Z,99889.88
2018-11-21T06:20:48.163Z,99890.84
2018-11-21T06:23:17.817Z,99893.38
2018-11-21T06:25:47.368Z,99893.70
2018-11-21T06:28:16.879Z,99900.38
2018-11-21T06:30:47.019Z,99904.39
2018-11-21T06:33:16.544Z,99913.64
2018-11-21T06:35:46.113Z,99919.20
2018-11-21T06:38:15.735Z,99923.38
2018-11-21T06:40:45.262Z,99920.07
2018-11-21T06:43:14.778Z,99929.65
2018-11-21T06:45:44.327Z,99928.69
2018-11-21T06:48:13.858Z,99934.53
2018-11-21T06:50:43.458Z,99935.29
2018-11-21T06:53:13.012Z,99930.67
2018-11-21T06:55:42.535Z,99935.72
2018-11-21T06:58:12.117Z,99939.89
2018-11-21T07:00:41.629Z,99944.31
2018-11-21T07:03:11.229Z,99944.38
2018-11-21T07:05:40.754Z,99948.52
2018-11-21T07:08:10.283Z,99952.08
2018-11-21T07:10:39.891Z,99959.47
2018-11-21T07:13:11.200Z,99955.45
2018-11-21T07:15:38.952Z,99957.19
2018-11-21T07:18:08.553Z,99958.58
2018-11-21T07:20:38.359Z,99950.22
2018-11-21T07:23:07.873Z,99966.37
2018-11-21T07:25:37.623Z,99964.38
2018-11-21T07:28:13.017Z,99969.16
2018-11-21T07:30:36.954Z,99979.98
2018-11-21T07:33:07.069Z,99980.38
2018-11-21T07:35:36.597Z,99982.28
2018-11-21T07:38:06.264Z,99986.05
2018-11-21T07:40:35.910Z,99984.58
2018-11-21T07:43:05.933Z,99985.50
2018-11-21T07:45:35.605Z,99995.75
2018-11-21T07:48:05.374Z,99997.64
2018-11-21T07:50:35.353Z,99999.96
2018-11-21T07:53:04.953Z,100007.20
2018-11-21T07:55:34.613Z,100009.80
2018-11-21T07:58:15.471Z,100013.20
2018-11-21T08:01:01.766Z,100017.03
2018-11-21T08:03:38.312Z,100020.95
2018-11-21T08:06:17.961Z,100025.64
2018-11-21T08:09:06.525Z,100030.09
2018-11-21T08:11:55.025Z,100033.70
2018-11-21T08:14:43.596Z,100045.72
2018-11-21T08:17:32.128Z,100045.01
2018-11-21T08:20:20.662Z,100047.20
2018-11-21T08:23:09.193Z,100054.52
2018-11-21T08:25:57.749Z,100057.90
2018-11-21T08:28:31.400Z,100059.17
2018-11-21T08:31:01.460Z,100054.88
2018-11-21T08:33:34.116Z,100057.94
2018-11-21T08:36:01.730Z,100055.99
2018-11-21T08:38:31.268Z,100062.43
2018-11-21T08:41:00.786Z,100065.34
2018-11-21T08:43:30.353Z,100073.02
2018-11-21T08:46:00.025Z,100072.81
2018-11-21T08:48:29.576Z,100070.18
2018-11-21T08:50:59.118Z,100073.80
2018-11-21T08:53:28.819Z,100081.37
2018-11-21T08:55:58.331Z,100081.28
2018-11-21T08:58:27.878Z,100080.17
2018-11-21T09:00:57.400Z,100080.64
2018-11-21T09:03:26.911Z,100078.84
2018-11-21T09:05:56.494Z,100081.09
2018-11-21T09:08:26.138Z,100070.14
2018-11-21T09:10:55.701Z,100072.48
2018-11-21T09:13:25.466Z,100078.16
2018-11-21T09:15:54.989Z,100076.73
2018-11-21T09:18:24.498Z,100082.05
2018-11-21T09:20:54.034Z,100077.70
2018-11-21T09:23:23.554Z,100076.58
2018-11-21T09:25:53.148Z,100073.98
2018-11-21T09:28:23.075Z,100083.02
2018-11-21T09:30:52.601Z,100083.77
2018-11-21T09:33:22.212Z,100090.56
2018-11-21T09:35:51.857Z,100081.23
2018-11-21T09:38:21.441Z,100083.38
2018-11-21T09:40:51.037Z,100079.65
2018-11-21T09:43:20.563Z,100086.07
2018-11-21T09:45:50.203Z,100087.91
2018-11-21T09:48:20.325Z,100088.72
2018-11-21T09:50:49.863Z,100088.42
2018-11-21T09:53:19.436Z,100092.70
2018-11-21T09:55:48.966Z,100086.42
2018-11-21T09:58:18.483Z,100089.17
2018-11-21T10:01:46.275Z,100085.72
2018-11-21T10:04:16.024Z,100083.88
2018-11-21T10:06:46.625Z,100083.83
2018-11-21T10:09:18.589Z,100086.17
2018-11-21T10:11:48.108Z,100079.15
2018-11-21T10:14:17.684Z,100072.73
2018-11-21T10:16:47.193Z,100074.05
2018-11-21T10:19:16.728Z,100073.53
2018-11-21T10:21:46.328Z,100077.56
2018-11-21T10:24:15.856Z,100077.56
2018-11-21T10:26:45.401Z,100079.80
2018-11-21T10:29:14.988Z,100083.94
2018-11-21T10:31:44.598Z,100085.05
2018-11-21T10:34:14.104Z,100086.33
2018-11-21T10:36:43.645Z,100080.06
2018-11-21T10:39:13.198Z,100081.64
2018-11-21T10:41:42.766Z,100083.72
2018-11-21T10:44:12.298Z,100090.77
2018-11-21T10:46:41.873Z,100089.38
2018-11-21T10:49:12.067Z,100084.33
2018-11-21T10:51:41.671Z,100080.45
2018-11-21T10:54:11.365Z,100082.39
2018-11-21T10:56:41.437Z,100079.30
2018-11-21T10:59:10.933Z,100082.91
2018-11-21T11:01:59.482Z,100084.69
2018-11-21T11:04:36.247Z,100086.31
2018-11-21T11:07:25.377Z,100085.05
2018-11-21T11:10:13.278Z,100084.63
2018-11-21T11:13:01.876Z,100073.67
2018-11-21T11:15:45.449Z,100074.64
2018-11-21T11:18:33.964Z,100070.53
2018-11-21T11:21:22.487Z,100074.41
2018-11-21T11:24:11.012Z,100076.23
2018-11-21T11:27:00.099Z,100075.06
2018-11-21T11:29:45.332Z,100075.81
2018-11-21T11:32:33.871Z,100065.31
2018-11-21T11:35:22.391Z,100067.09
2018-11-21T11:38:03.556Z,100075.11
2018-11-21T11:40:52.251Z,100075.66
2018-11-21T11:43:40.780Z,100075.71
2018-11-21T11:46:29.284Z,100075.47
2018-11-21T11:49:17.847Z,100076.93
2018-11-21T11:52:06.360Z,100073.03
2018-11-21T11:54:54.923Z,100079.75
2018-11-21T11:57:43.409Z,100081.23
2018-11-21T12:00:31.947Z,100079.20
2018-11-21T12:03:20.427Z,100075.92
2018-11-21T12:06:08.989Z,100076.23
2018-11-21T12:08:52.893Z,100069.21
2018-11-21T12:11:41.540Z,100071.70
2018-11-21T12:14:30.111Z,100072.62
2018-11-21T12:17:18.660Z,100066.77
2018-11-21T12:20:07.200Z,100071.19
2018-11-21T12:22:55.690Z,100061.09
2018-11-21T12:25:33.856Z,100061.75
2018-11-21T12:28:20.815Z,100053.81
2018-11-21T12:31:09.342Z,100056.26
2018-11-21T12:33:57.824Z,100057.98
2018-11-21T12:36:46.331Z,100059.77
2018-11-21T12:39:35.449Z,100047.34
2018-11-21T12:42:24.506Z,100047.78
2018-11-21T12:45:13.058Z,100052.80
2018-11-21T12:48:01.586Z,100055.30
2018-11-21T12:50:50.186Z,100062.02
2018-11-21T12:53:38.684Z,100052.88
2018-11-21T12:56:27.241Z,100057.64
2018-11-21T12:59:15.734Z,100057.43
2018-11-21T13:01:54.098Z,100064.11
2018-11-21T13:04:42.884Z,100055.54
2018-11-21T13:07:31.386Z,100054.17
2018-11-21T13:10:18.324Z,100062.22
2018-11-21T13:13:06.439Z,100060.69
2018-11-21T13:15:44.163Z,100065.28
2018-11-21T13:18:32.681Z,100066.35
2018-11-21T13:21:10.827Z,100069.91
2018-11-21T13:23:46.521Z,100066.25
2018-11-21T13:26:35.077Z,100065.94
2018-11-21T13:29:17.271Z,100072.30
2018-11-21T13:32:04.847Z,100078.67
2018-11-21T13:34:47.938Z,100074.84
2018-11-21T13:37:36.532Z,100082.13
2018-11-21T13:40:22.654Z,100076.72
2018-11-21T13:43:11.231Z,100080.75
2018-11-21T13:45:50.975Z,100084.46
2018-11-21T13:48:27.898Z,100092.30
2018-11-21T13:51:06.370Z,100090.30
2018-11-21T13:53:55.119Z,100091.87
2018-11-21T13:56:24.588Z,100085.19
2018-11-21T13:58:54.375Z,100094.63
2018-11-21T14:01:24.067Z,100097.36
2018-11-21T14:03:53.683Z,100099.59
2018-11-21T14:06:23.346Z,100094.30
2018-11-21T14:08:53.025Z,100107.23
2018-11-21T14:11:22.667Z,100106.28
2018-11-21T14:13:52.328Z,100106.67
2018-11-21T14:16:22.244Z,100106.16
2018-11-21T14:18:52.613Z,100113.44
2018-11-21T14:21:22.803Z,100112.13
2018-11-21T14:23:52.317Z,100110.85
2018-11-21T14:26:21.918Z,100107.59
2018-11-21T14:28:52.114Z,100111.53
2018-11-21T14:31:21.851Z,100110.89
2018-11-21T14:33:51.418Z,100115.75
2018-11-21T14:36:21.133Z,100112.13
2018-11-21T14:38:50.893Z,100110.30
2018-11-21T14:41:20.488Z,100113.80
2018-11-21T14:43:50.066Z,100110.09
2018-11-21T14:46:19.714Z,100117.42
2018-11-21T14:48:49.294Z,100123.27
2018-11-21T14:51:18.992Z,100125.58
2018-11-21T14:53:48.763Z,100125.53
2018-11-21T14:56:18.813Z,100128.67
2018-11-21T14:58:48.447Z,100126.65
2018-11-21T15:01:18.099Z,100133.02
2018-11-21T15:03:47.660Z,100136.83
2018-11-21T15:06:17.225Z,100137.39
2018-11-21T15:08:47.083Z,100137.23
2018-11-21T15:11:16.653Z,100137.59
2018-11-21T15:13:46.433Z,100137.98
2018-11-21T15:16:16.258Z,100148.84
2018-11-21T15:18:45.802Z,100153.55
2018-11-21T15:21:16.689Z,100155.41
2018-11-21T15:23:44.958Z,100158.80
2018-11-21T15:26:14.657Z,100158.68
2018-11-21T15:28:44.643Z,100156.69
2018-11-21T15:31:14.414Z,100167.23
2018-11-21T15:33:43.974Z,100161.78
2018-11-21T15:36:13.566Z,100165.28
2018-11-21T15:38:43.083Z,100169.81
2018-11-21T15:41:12.643Z,100159.80
2018-11-21T15:43:42.248Z,100164.88
2018-11-21T15:46:11.778Z,100165.80
2018-11-21T15:48:41.340Z,100175.58
2018-11-21T15:51:10.938Z,100175.58
2018-11-21T15:53:40.466Z,100172.16
2018-11-21T15:56:10.014Z,100173.95
2018-11-21T15:58:39.634Z,100178.53
2018-11-21T16:01:09.183Z,100173.56
2018-11-21T16:03:38.723Z,100175.19
2018-11-21T16:06:08.338Z,100177.82
2018-11-21T16:08:37.841Z,100180.09
2018-11-21T16:11:07.493Z,100184.06
2018-11-21T16:13:37.248Z,100183.55
2018-11-21T16:16:07.283Z,100183.74
2018-11-21T16:18:37.103Z,100183.95
2018-11-21T16:21:07.044Z,100188.64
2018-11-21T16:23:36.692Z,100191.91
2018-11-21T16:26:06.482Z,100192.14
2018-11-21T16:28:36.242Z,100189.03
2018-11-21T16:31:06.033Z,100189.03
2018-11-21T16:33:35.608Z,100192.86
2018-11-21T16:36:05.448Z,100189.79
2018-11-21T16:38:35.004Z,100196.00
2018-11-21T16:41:04.557Z,100195.56
2018-11-21T16:43:34.233Z,100196.35
2018-11-21T16:46:03.836Z,100194.40
2018-11-21T16:48:33.409Z,100199.17
2018-11-21T16:51:03.057Z,100198.22
2018-11-21T16:53:35.263Z,100197.73
2018-11-21T16:56:02.149Z,100200.99
2018-11-21T16:58:31.731Z,100199.95
2018-11-21T17:01:01.274Z,100199.56
2018-11-21T17:03:30.841Z,100201.78
2018-11-21T17:06:00.419Z,100199.56
2018-11-21T17:08:29.923Z,100197.24
2018-11-21T17:10:59.458Z,100203.48
2018-11-21T17:13:29.383Z,100208.57
2018-11-21T17:15:58.979Z,100196.49
2018-11-21T17:18:28.520Z,100195.09
2018-11-21T17:20:58.394Z,100190.20
2018-11-21T17:23:27.928Z,100190.69
2018-11-21T17:25:57.478Z,100203.25
2018-11-21T17:28:27.104Z,100202.34
2018-11-21T17:30:56.692Z,100201.98
2018-11-21T17:33:26.227Z,100200.50
2018-11-21T17:35:55.788Z,100196.69
2018-11-21T17:38:26.347Z,100200.34
2018-11-21T17:40:54.871Z,100206.35
2018-11-21T17:43:24.454Z,100210.33
2018-11-21T17:45:54.053Z,100213.98
2018-11-21T17:48:23.592Z,100209.74
2018-11-21T17:50:56.193Z,100210.50
2018-11-21T17:53:27.318Z,100217.41
2018-11-21T17:55:56.984Z,100220.88
2018-11-21T17:58:26.507Z,100222.47
2018-11-21T18:00:56.027Z,100216.14
2018-11-21T18:03:25.668Z,100224.50
2018-11-21T18:05:55.262Z,100226.65
2018-11-21T18:08:24.782Z,100228.84
2018-11-21T18:10:54.388Z,100228.45
2018-11-21T18:13:23.926Z,100234.13
2018-11-21T18:15:53.452Z,100232.13
2018-11-21T18:18:23.071Z,100233.41
2018-11-21T18:20:55.687Z,100235.40
2018-11-21T18:23:25.257Z,100238.86
2018-11-21T18:25:55.320Z,100233.59
2018-11-21T18:28:24.898Z,100233.53
2018-11-21T18:30:54.511Z,100232.27
2018-11-21T18:33:27.203Z,100232.45
2018-11-21T18:35:56.768Z,100235.14
2018-11-21T18:38:29.388Z,100229.69
2018-11-21T18:41:02.203Z,100238.05
2018-11-21T18:43:31.751Z,100237.00
2018-11-21T18:46:01.404Z,100241.14
2018-11-21T18:48:31.950Z,100243.66
2018-11-21T18:51:05.268Z,100244.18
2018-11-21T18:53:34.966Z,100250.58
2018-11-21T18:56:45.541Z,100253.45
2018-11-21T18:59:39.063Z,100252.24
